Meath Environmental Platform

Observations

Time Sensor AQI SAQ Temp °C Hum % Pres Pa CO μg/m³ H₂S μg/m³ NO μg/m³ NO₂ μg/m³ O₃ μg/m³ SO₂ μg/m³ CO₂e PPM VOC PPM PM1 μg/m³ PM2.5 μg/m³ PM4 μg/m³ PM10 μg/m³ TPS µm
Wednesday 12 August 2026
05:46 Trim Market St 2 19.2 68 56,322 0.13 0 1.24 22.62 60.32 0 3.56 4.59 8.17
05:45 Trim Patrick St 2 18.6 72 38,460 0.1 0.83 1.25 18.66 54.69 0 8 12.91 14.2
05:45 Trim Market St 2 19.2 68 56,331 0.12 0 1.24 11.87 76.27 0 4.28 6.06 8.8
05:44 Trim Patrick St 2 18.6 72 38,460 0.08 2.41 1.25 16.17 53.75 0 6.29 11.46 12.61
05:43 Trim Patrick St 2 18.6 72 38,460 0.07 2.56 1.23 35.28 55 0 8 13.62 14.98
05:42 Trim Market St 2 19.2 68 56,316 0.15 0 1.24 20.23 66.49 0 4.28 6.06 8.8
05:42 Trim Patrick St 2 18.6 72 38,460 0.08 1.23 1.24 8.06 37.94 0 7.14 12.21 13.43
05:41 Trim Market St 2 19.2 68 56,317 0.11 0 1.24 12.97 68.18 0 3.56 5.58 8.17
05:41 Trim Patrick St 2 18.6 71 38,460 0.07 3.3 1.25 33.68 58.51 0 6.29 11.58 12.73
05:40 Trim Market St 2 19.2 68 56,323 0.11 0 1.24 12.82 67.3 0 4.28 6.06 8.8
05:40 Trim Patrick St 2 18.6 72 38,460 0.06 2.91 1.25 24.71 50.71 0 7.14 11.45 12.6
05:39 Trim Market St 2 19.1 68 56,330 0.11 0 1.26 17.41 64.8 0 3.56 5.09 7.53
05:39 Trim Patrick St 2 18.6 71 38,460 0.07 3.67 1.28 24.32 60.01 0 8 13.03 14.34
05:38 Trim Patrick St 2 18.5 70 38,460 0.07 3.35 1.3 35.71 56.96 0 8 12.38 13.62
05:37 Trim Patrick St 2 18.6 71 38,460 0.06 1.86 1.25 22.01 61.4 0 6.29 11.53 12.68
05:36 Trim Patrick St 2 18.5 72 38,460 0.07 1.15 1.28 9.94 43.38 0 6.29 10.73 11.8
05:35 Trim Patrick St 2 18.5 72 38,460 0.06 3.8 1.28 22.28 57.22 0 8 12.2 13.42
05:34 Trim Patrick St 2 18.5 68 38,460 0.06 4.19 1.34 28.64 59 0 5.43 10.34 11.37
05:33 Trim Patrick St 2 18.5 72 38,460 0.06 3.25 1.26 28.52 47.86 0 7.14 10.76 11.84
05:32 Trim Patrick St 2 18.5 72 38,460 0.07 0.81 1.27 12.43 52.54 0 7.14 10.75 11.83